Time;durP1;ratioP1;P1;durP2;ratioP2;P2;SDS_P1;SDS_P2;PMS_P1;PMS_P2;Temp;Humidity;BMP_temperature;BMP_pressure;BME280_temperature;BME280_humidity;BME280_pressure;Samples;Min_cycle;Max_cycle;Signal;HPM_P1;HPM_P2
2024/04/15 00:01:11;;;;;;;8.57;5.90;;;13.60;73.60;;;;;;6778233;26;20499;-65
2024/04/15 00:04:13;;;;;;;6.33;5.40;;;13.60;73.50;;;;;;6777236;26;20460;-65
2024/04/15 00:07:15;;;;;;;15.57;5.83;;;13.70;73.40;;;;;;6776451;26;20808;-65
2024/04/15 00:10:17;;;;;;;5.60;5.10;;;13.60;72.40;;;;;;6776047;26;20562;-65
2024/04/15 00:13:19;;;;;;;6.50;5.73;;;13.70;72.40;;;;;;6776237;26;20970;-65
2024/04/15 00:16:21;;;;;;;6.87;5.70;;;13.60;72.30;;;;;;6772620;26;20455;-66
2024/04/15 00:19:26;;;;;;;7.83;5.63;;;13.70;72.00;;;;;;6775814;26;20458;-66
2024/04/15 00:22:27;;;;;;;7.37;5.77;;;13.70;71.60;;;;;;6775641;26;20436;-66
2024/04/15 00:25:29;;;;;;;6.77;5.00;;;13.60;71.80;;;;;;6778006;26;20467;-65
2024/04/15 00:28:31;;;;;;;12.40;5.90;;;13.60;71.50;;;;;;6780300;26;20458;-66
2024/04/15 00:31:33;;;;;;;7.63;5.40;;;13.60;71.80;;;;;;6779816;26;20839;-65
2024/04/15 00:34:35;;;;;;;6.97;5.23;;;13.50;71.70;;;;;;6776140;26;20495;-66
2024/04/15 00:37:37;;;;;;;8.30;5.27;;;13.50;71.40;;;;;;6775687;26;20443;-66
2024/04/15 00:40:39;;;;;;;7.40;5.20;;;13.50;71.30;;;;;;6775733;26;20967;-65
2024/04/15 00:43:41;;;;;;;7.80;5.23;;;13.50;71.10;;;;;;6775350;26;20452;-66
2024/04/15 00:46:43;;;;;;;8.07;5.10;;;13.60;71.20;;;;;;6775143;26;20452;-66
2024/04/15 00:49:45;;;;;;;5.97;5.30;;;13.60;71.00;;;;;;6775445;26;21046;-65
2024/04/15 00:52:47;;;;;;;6.83;5.23;;;13.50;70.70;;;;;;6775404;26;20464;-65
2024/04/15 00:55:52;;;;;;;7.60;4.93;;;13.50;70.60;;;;;;6775222;26;20451;-66
2024/04/15 00:58:55;;;;;;;6.20;4.90;;;13.60;70.70;;;;;;6775001;26;20578;-66
2024/04/15 01:01:58;;;;;;;5.70;5.00;;;13.60;70.90;;;;;;6774922;26;20499;-65
2024/04/15 01:05:00;;;;;;;7.20;5.37;;;13.60;71.20;;;;;;6775231;26;20545;-65
2024/04/15 01:08:03;;;;;;;6.83;5.60;;;13.60;71.30;;;;;;6775422;26;20566;-66
2024/04/15 01:11:04;;;;;;;10.93;5.40;;;13.60;71.60;;;;;;6775265;26;20555;-66
2024/04/15 01:14:06;;;;;;;7.67;5.40;;;13.60;72.30;;;;;;6774694;26;20951;-66
2024/04/15 01:17:08;;;;;;;8.60;5.70;;;13.60;72.30;;;;;;6775401;26;20487;-65
2024/04/15 01:20:10;;;;;;;10.50;5.87;;;13.60;72.80;;;;;;6775751;26;20512;-66
2024/04/15 01:23:21;;;;;;;6.47;5.87;;;13.50;73.40;;;;;;6776223;26;20459;-66
2024/04/15 01:26:23;;;;;;;8.10;6.10;;;13.50;73.80;;;;;;6777030;26;20472;-65
2024/04/15 01:29:25;;;;;;;6.60;5.87;;;13.50;73.90;;;;;;6783151;26;20471;-65
2024/04/15 01:32:26;;;;;;;10.13;6.87;;;13.50;73.90;;;;;;6785437;26;20495;-65
2024/04/15 01:35:28;;;;;;;8.03;5.33;;;13.40;74.30;;;;;;6782307;26;20500;-66
2024/04/15 01:38:30;;;;;;;9.53;6.30;;;13.40;74.60;;;;;;6781805;26;20928;-65
2024/04/15 01:41:32;;;;;;;11.60;6.20;;;13.50;74.70;;;;;;6779012;26;20503;-65
2024/04/15 01:44:34;;;;;;;9.10;5.80;;;13.50;74.40;;;;;;6775315;26;20564;-65
2024/04/15 01:47:35;;;;;;;9.43;6.03;;;13.50;73.80;;;;;;6775349;26;20459;-65
2024/04/15 01:50:37;;;;;;;10.07;5.10;;;13.50;73.50;;;;;;6773454;26;20983;-65
2024/04/15 01:53:39;;;;;;;6.83;5.20;;;13.50;73.20;;;;;;6774758;26;20503;-66
2024/04/15 01:56:41;;;;;;;7.40;5.73;;;13.50;72.60;;;;;;6774678;26;20527;-66
2024/04/15 01:59:43;;;;;;;8.40;5.03;;;13.60;72.40;;;;;;6774243;26;20447;-65
2024/04/15 02:02:45;;;;;;;7.17;5.27;;;13.50;72.70;;;;;;6774237;26;20459;-65
2024/04/15 02:05:48;;;;;;;9.07;6.27;;;13.50;73.00;;;;;;6774863;26;20463;-65
2024/04/15 02:08:49;;;;;;;9.87;5.70;;;13.50;72.60;;;;;;6774087;26;20559;-65
2024/04/15 02:11:51;;;;;;;7.00;6.10;;;13.60;73.10;;;;;;6772438;26;20451;-65
2024/04/15 02:14:53;;;;;;;10.90;6.80;;;13.50;73.80;;;;;;6775165;26;20459;-68
2024/04/15 02:17:55;;;;;;;8.30;6.67;;;13.50;74.40;;;;;;6780535;26;20485;-65
2024/04/15 02:20:59;;;;;;;9.83;6.37;;;13.50;74.80;;;;;;6783787;26;20500;-65
2024/04/15 02:24:01;;;;;;;9.40;7.20;;;13.40;75.40;;;;;;6784370;26;20455;-66
2024/04/15 02:27:03;;;;;;;10.63;6.90;;;13.40;76.20;;;;;;6781659;26;20503;-66
2024/04/15 02:30:06;;;;;;;9.13;7.07;;;13.30;76.70;;;;;;6781884;26;20455;-65
2024/04/15 02:33:08;;;;;;;9.47;7.37;;;13.30;76.90;;;;;;6778056;26;20440;-65
2024/04/15 02:36:10;;;;;;;13.73;7.40;;;13.20;77.00;;;;;;6772908;26;20558;-65
2024/04/15 02:39:12;;;;;;;9.33;6.77;;;13.30;76.50;;;;;;6777685;26;20444;-65
2024/04/15 02:42:14;;;;;;;9.10;7.00;;;13.30;76.30;;;;;;6778695;26;20447;-65
2024/04/15 02:45:16;;;;;;;8.77;7.00;;;13.20;76.10;;;;;;6778370;26;20507;-65
2024/04/15 02:48:18;;;;;;;7.63;6.80;;;13.30;76.00;;;;;;6780449;26;20464;-65
2024/04/15 02:51:19;;;;;;;7.30;6.60;;;13.30;76.30;;;;;;6778688;26;20482;-66
2024/04/15 02:54:21;;;;;;;12.10;7.50;;;13.20;76.70;;;;;;6778148;26;20451;-65
2024/04/15 02:57:23;;;;;;;10.80;7.63;;;13.10;77.60;;;;;;6777683;26;20479;-65
2024/04/15 03:00:25;;;;;;;13.80;7.73;;;13.00;79.30;;;;;;6777649;26;20769;-65
2024/04/15 03:03:27;;;;;;;14.17;8.20;;;12.90;80.60;;;;;;6776062;26;20459;-65
2024/04/15 03:06:29;;;;;;;12.00;8.53;;;12.80;81.20;;;;;;6777756;26;20447;-65
2024/04/15 03:09:30;;;;;;;12.10;8.23;;;12.80;81.20;;;;;;6778446;26;20451;-65
2024/04/15 03:12:32;;;;;;;11.00;7.03;;;12.80;80.60;;;;;;6777513;26;20554;-65
2024/04/15 03:15:34;;;;;;;11.60;8.00;;;12.80;80.60;;;;;;6777497;26;20508;-66
2024/04/15 03:18:36;;;;;;;15.00;7.90;;;12.70;80.40;;;;;;6777246;26;20463;-66
2024/04/15 03:21:38;;;;;;;11.83;7.30;;;12.70;80.90;;;;;;6777866;26;20488;-66
2024/04/15 03:24:40;;;;;;;10.37;6.83;;;12.70;80.70;;;;;;6775816;26;20463;-67
2024/04/15 03:27:42;;;;;;;11.00;7.23;;;12.70;79.80;;;;;;6778011;26;20505;-65
2024/04/15 03:30:44;;;;;;;9.93;7.60;;;12.70;80.10;;;;;;6777999;26;20455;-65
2024/04/15 03:33:46;;;;;;;13.43;7.90;;;12.80;80.10;;;;;;6778340;26;20930;-66
2024/04/15 03:36:47;;;;;;;10.07;7.80;;;12.70;80.10;;;;;;6778038;26;20558;-66
2024/04/15 03:39:49;;;;;;;8.77;7.90;;;12.70;80.50;;;;;;6777344;26;20455;-65
2024/04/15 03:42:51;;;;;;;12.17;7.70;;;12.70;80.30;;;;;;6777309;26;20516;-65
2024/04/15 03:45:53;;;;;;;8.30;7.07;;;12.70;80.20;;;;;;6777160;26;20463;-66
2024/04/15 03:48:55;;;;;;;9.87;7.80;;;12.70;80.10;;;;;;6777352;26;20454;-65
2024/04/15 03:51:57;;;;;;;11.60;7.40;;;12.70;80.10;;;;;;6777315;26;20459;-65
2024/04/15 03:54:59;;;;;;;9.20;7.57;;;12.70;80.00;;;;;;6776807;26;20455;-66
2024/04/15 03:58:01;;;;;;;15.03;8.40;;;12.80;79.80;;;;;;6781222;26;20582;-65
2024/04/15 04:01:03;;;;;;;9.77;8.10;;;12.80;79.80;;;;;;6789813;26;20524;-65
2024/04/15 04:04:05;;;;;;;10.03;7.00;;;12.70;79.60;;;;;;6787291;26;20463;-65
2024/04/15 04:07:07;;;;;;;8.90;7.27;;;12.80;79.10;;;;;;6785792;26;20507;-65
2024/04/15 04:10:09;;;;;;;8.07;7.23;;;12.80;78.80;;;;;;6785838;26;20541;-65
2024/04/15 04:13:11;;;;;;;13.10;7.70;;;12.80;78.90;;;;;;6784503;26;20463;-64
2024/04/15 04:16:13;;;;;;;12.10;7.60;;;12.70;79.50;;;;;;6780504;26;21050;-65
2024/04/15 04:19:15;;;;;;;10.10;6.90;;;12.80;79.20;;;;;;6776274;26;20548;-66
2024/04/15 04:22:17;;;;;;;10.43;6.80;;;12.80;79.00;;;;;;6776137;26;20515;-65
2024/04/15 04:25:19;;;;;;;9.00;6.60;;;12.80;78.50;;;;;;6774257;26;20538;-65
2024/04/15 04:28:21;;;;;;;10.50;7.80;;;12.70;78.50;;;;;;6775859;26;20500;-65
2024/04/15 04:31:23;;;;;;;13.50;8.00;;;12.70;78.60;;;;;;6775414;26;20543;-64
2024/04/15 04:34:25;;;;;;;9.60;7.30;;;12.70;78.70;;;;;;6775452;26;21053;-64
2024/04/15 04:37:27;;;;;;;11.80;8.37;;;12.60;79.50;;;;;;6775719;26;20451;-64
2024/04/15 04:40:29;;;;;;;15.10;8.37;;;12.60;80.20;;;;;;6775745;26;20459;-65
2024/04/15 04:43:31;;;;;;;11.90;8.60;;;12.60;81.10;;;;;;6775587;26;20483;-65
2024/04/15 04:46:32;;;;;;;17.57;8.43;;;12.50;81.50;;;;;;6775558;26;20570;-64
2024/04/15 04:49:34;;;;;;;10.10;8.10;;;12.40;81.10;;;;;;6776018;26;20455;-65
2024/04/15 04:52:36;;;;;;;12.30;8.80;;;12.30;81.30;;;;;;6776631;26;20503;-65
2024/04/15 04:55:38;;;;;;;13.83;9.13;;;12.20;81.80;;;;;;6777187;26;20460;-64
2024/04/15 04:58:41;;;;;;;12.20;9.63;;;12.20;82.00;;;;;;6778598;26;21045;-64
2024/04/15 05:01:42;;;;;;;13.13;9.37;;;12.10;82.00;;;;;;6776223;26;20524;-65
2024/04/15 05:04:44;;;;;;;15.97;9.23;;;12.00;82.30;;;;;;6782093;26;20460;-65
2024/04/15 05:07:46;;;;;;;15.00;9.73;;;12.00;82.50;;;;;;6778902;26;20507;-66
2024/04/15 05:10:48;;;;;;;9.73;8.73;;;12.00;81.70;;;;;;6776189;26;20897;-65
2024/04/15 05:13:50;;;;;;;12.67;10.20;;;11.90;81.80;;;;;;6775744;26;20561;-65
2024/04/15 05:16:52;;;;;;;14.27;10.37;;;11.90;81.30;;;;;;6775256;26;20515;-65
2024/04/15 05:19:54;;;;;;;13.17;11.13;;;11.90;81.60;;;;;;6775651;26;20539;-64
2024/04/15 05:22:56;;;;;;;14.30;10.90;;;11.90;81.40;;;;;;6775273;26;20443;-65
2024/04/15 05:25:58;;;;;;;16.03;10.37;;;11.90;81.60;;;;;;6774723;26;20748;-65
2024/04/15 05:29:00;;;;;;;19.17;10.40;;;11.90;81.70;;;;;;6774888;26;20467;-65
2024/04/15 05:32:02;;;;;;;15.77;10.57;;;12.00;81.90;;;;;;6775194;26;20463;-65
2024/04/15 05:35:04;;;;;;;13.93;11.43;;;11.90;81.50;;;;;;6775612;26;20507;-69
2024/04/15 05:38:06;;;;;;;16.03;11.00;;;12.00;81.80;;;;;;6773865;26;20487;-65
2024/04/15 05:41:08;;;;;;;12.13;10.87;;;12.00;82.10;;;;;;6774011;26;20610;-65
2024/04/15 05:44:10;;;;;;;14.87;10.33;;;12.00;82.00;;;;;;6774171;26;20973;-65
2024/04/15 05:47:12;;;;;;;16.40;10.40;;;12.10;81.80;;;;;;6774172;26;20455;-64
2024/04/15 05:50:14;;;;;;;17.50;11.10;;;12.20;82.10;;;;;;6773911;26;20459;-65
2024/04/15 05:53:16;;;;;;;13.50;10.37;;;12.20;82.30;;;;;;6774071;26;20519;-65
2024/04/15 05:56:18;;;;;;;12.80;9.97;;;12.40;82.20;;;;;;6774234;26;20803;-65
2024/04/15 05:59:19;;;;;;;14.60;11.27;;;12.50;81.90;;;;;;6781712;26;20569;-65
2024/04/15 06:02:21;;;;;;;16.40;10.20;;;12.60;81.40;;;;;;6786046;26;20508;-64
2024/04/15 06:05:25;;;;;;;13.80;10.73;;;12.70;81.00;;;;;;6788091;26;20455;-64
2024/04/15 06:08:27;;;;;;;14.60;10.20;;;12.80;80.80;;;;;;6784669;26;20460;-64
2024/04/15 06:11:28;;;;;;;15.90;10.67;;;12.90;80.00;;;;;;6773755;26;20455;-64
2024/04/15 06:14:31;;;;;;;14.23;10.67;;;13.00;79.80;;;;;;6777501;26;20919;-70
2024/04/15 06:17:32;;;;;;;13.70;10.40;;;13.00;79.40;;;;;;6779652;26;20546;-66
2024/04/15 06:20:34;;;;;;;22.70;12.37;;;13.20;79.40;;;;;;6781084;26;20496;-66
2024/04/15 06:23:36;;;;;;;18.07;11.40;;;13.20;79.20;;;;;;6779126;26;20504;-66
2024/04/15 06:26:38;;;;;;;18.90;12.80;;;13.30;79.20;;;;;;6778159;26;20471;-66
2024/04/15 06:29:40;;;;;;;11.67;9.10;;;13.30;79.00;;;;;;6777092;26;20503;-65
2024/04/15 06:32:42;;;;;;;13.37;9.73;;;13.30;78.50;;;;;;6782093;26;20554;-67
2024/04/15 06:35:45;;;;;;;13.57;9.27;;;13.30;79.20;;;;;;6781028;26;20455;-65
2024/04/15 06:38:47;;;;;;;13.53;9.27;;;13.30;79.30;;;;;;6777853;26;20444;-65
2024/04/15 06:41:49;;;;;;;12.10;9.50;;;13.30;79.30;;;;;;6778824;26;20562;-64
2024/04/15 06:44:51;;;;;;;10.80;9.00;;;13.20;79.40;;;;;;6779142;26;20499;-65
2024/04/15 06:47:53;;;;;;;13.57;9.50;;;13.20;79.60;;;;;;6781224;26;20887;-65
2024/04/15 06:50:56;;;;;;;18.10;10.03;;;13.10;80.00;;;;;;6786263;26;20830;-66
2024/04/15 06:53:57;;;;;;;12.40;9.40;;;13.10;80.50;;;;;;6779906;26;20463;-65
2024/04/15 06:56:59;;;;;;;19.20;10.80;;;13.20;80.40;;;;;;6776369;26;20962;-66
2024/04/15 07:00:02;;;;;;;16.13;10.33;;;13.50;80.00;;;;;;6778326;26;20579;-66
2024/04/15 07:03:03;;;;;;;12.60;9.13;;;13.60;79.40;;;;;;6778187;26;20966;-66
2024/04/15 07:06:06;;;;;;;12.13;9.10;;;13.80;78.90;;;;;;6785303;26;20435;-65
2024/04/15 07:09:07;;;;;;;10.13;8.87;;;14.10;78.40;;;;;;6781070;26;20539;-66
2024/04/15 07:12:09;;;;;;;15.43;8.17;;;14.30;77.00;;;;;;6780076;26;20507;-65
2024/04/15 07:15:11;;;;;;;10.93;7.83;;;14.50;74.40;;;;;;6779442;26;20451;-66
2024/04/15 07:18:13;;;;;;;11.10;8.50;;;14.40;74.30;;;;;;6783548;26;20451;-65
2024/04/15 07:21:15;;;;;;;10.63;8.73;;;14.30;74.40;;;;;;6784088;26;20598;-66
2024/04/15 07:24:17;;;;;;;10.40;8.23;;;14.40;74.80;;;;;;6782039;26;20529;-66
2024/04/15 07:27:18;;;;;;;13.80;9.13;;;14.40;74.20;;;;;;6781508;26;20565;-65
2024/04/15 07:30:20;;;;;;;15.97;9.20;;;14.40;74.40;;;;;;6780085;26;20495;-64
2024/04/15 07:33:22;;;;;;;9.50;7.67;;;14.40;74.90;;;;;;6781301;26;20455;-64
2024/04/15 07:36:24;;;;;;;11.97;9.40;;;14.60;75.30;;;;;;6782674;26;20455;-65
2024/04/15 07:39:26;;;;;;;13.43;8.70;;;14.80;74.50;;;;;;6783365;26;20435;-65
2024/04/15 07:42:28;;;;;;;12.10;8.90;;;14.90;74.50;;;;;;6779171;26;20868;-64
2024/04/15 07:45:44;;;;;;;9.53;8.13;;;15.00;72.90;;;;;;6782352;26;20975;-64
2024/04/15 07:48:46;;;;;;;9.50;7.03;;;15.20;71.80;;;;;;6777926;26;20507;-64
2024/04/15 07:51:48;;;;;;;15.47;7.37;;;15.30;69.00;;;;;;6776484;26;20762;-63
2024/04/15 07:54:51;;;;;;;8.67;6.67;;;15.50;68.70;;;;;;6776450;26;20523;-65
2024/04/15 07:57:55;;;;;;;7.33;6.30;;;15.80;68.00;;;;;;6778867;26;20532;-64
2024/04/15 08:00:57;;;;;;;12.57;6.83;;;16.10;66.40;;;;;;6779816;26;20443;-64
2024/04/15 08:04:00;;;;;;;10.80;6.27;;;16.30;64.50;;;;;;6779945;26;20451;-64
2024/04/15 08:07:02;;;;;;;12.10;6.20;;;16.40;62.70;;;;;;6777191;26;20550;-64
2024/04/15 08:10:14;;;;;;;8.70;5.90;;;16.50;61.60;;;;;;6780227;26;20504;-65
2024/04/15 08:13:17;;;;;;;9.53;5.53;;;16.30;62.10;;;;;;6780799;26;20455;-65
2024/04/15 08:16:19;;;;;;;10.03;5.80;;;16.10;63.00;;;;;;6777113;26;20460;-64
2024/04/15 08:19:21;;;;;;;10.27;5.57;;;16.00;63.10;;;;;;6776187;26;20463;-64
2024/04/15 08:22:23;;;;;;;8.80;5.57;;;16.10;64.50;;;;;;6775798;26;20443;-64
2024/04/15 08:25:25;;;;;;;7.33;5.20;;;16.30;63.20;;;;;;6775246;26;20439;-64
2024/04/15 08:28:27;;;;;;;5.73;5.10;;;16.40;61.40;;;;;;6777406;26;20537;-65
2024/04/15 08:31:29;;;;;;;11.60;4.77;;;16.00;63.10;;;;;;6776619;26;20515;-65
2024/04/15 08:34:31;;;;;;;6.10;4.30;;;15.80;63.90;;;;;;6776172;26;20915;-64
2024/04/15 08:37:33;;;;;;;7.87;4.83;;;15.70;63.10;;;;;;6773851;26;20801;-65
2024/04/15 08:40:35;;;;;;;5.03;4.00;;;15.40;63.00;;;;;;6774986;26;20574;-64
2024/04/15 08:43:38;;;;;;;5.80;3.70;;;15.40;63.00;;;;;;6775093;26;20759;-65
2024/04/15 08:46:44;;;;;;;9.33;3.27;;;15.50;63.00;;;;;;6775901;26;20835;-63
2024/04/15 08:49:49;;;;;;;4.40;2.83;;;15.60;62.40;;;;;;6775024;26;20492;-64
2024/04/15 08:52:54;;;;;;;5.73;3.40;;;15.80;61.90;;;;;;6773467;26;20496;-65
2024/04/15 08:55:56;;;;;;;3.97;2.93;;;15.90;61.60;;;;;;6774607;26;20564;-66
2024/04/15 08:58:58;;;;;;;5.90;3.20;;;15.90;61.10;;;;;;6774589;26;21078;-64
2024/04/15 09:02:06;;;;;;;7.40;3.30;;;15.90;62.00;;;;;;6774720;26;20452;-65
2024/04/15 09:05:09;;;;;;;5.43;3.10;;;15.80;60.30;;;;;;6774375;26;20500;-65
2024/04/15 09:08:13;;;;;;;6.80;3.30;;;15.40;60.90;;;;;;6774502;26;20512;-66
2024/04/15 09:11:16;;;;;;;5.80;3.27;;;15.40;61.50;;;;;;6775967;26;20455;-64
2024/04/15 09:14:18;;;;;;;3.40;3.10;;;15.50;61.90;;;;;;6775983;26;20553;-65
2024/04/15 09:17:20;;;;;;;9.23;3.50;;;15.40;61.00;;;;;;6775400;26;20496;-64
2024/04/15 09:20:22;;;;;;;5.90;3.37;;;15.50;62.80;;;;;;6777861;26;20507;-64
2024/04/15 09:23:44;;;;;;;5.50;3.20;;;15.60;60.70;;;;;;6772430;26;20448;-65
2024/04/15 09:26:45;;;;;;;7.43;3.27;;;15.80;60.70;;;;;;6773765;26;20949;-65
2024/04/15 09:29:48;;;;;;;3.73;2.87;;;16.00;59.30;;;;;;6773664;26;20904;-65
2024/04/15 09:32:50;;;;;;;5.17;2.50;;;16.10;59.90;;;;;;6774121;26;20451;-65
2024/04/15 09:35:53;;;;;;;4.83;3.00;;;16.20;59.30;;;;;;6774521;26;20463;-64
2024/04/15 09:38:56;;;;;;;4.60;2.23;;;16.30;58.50;;;;;;6774140;26;20507;-64
2024/04/15 09:42:00;;;;;;;3.93;2.83;;;16.40;58.20;;;;;;6774325;26;20460;-65
2024/04/15 09:45:03;;;;;;;5.03;2.60;;;16.50;58.10;;;;;;6775205;26;20452;-65
2024/04/15 09:48:14;;;;;;;6.07;2.73;;;16.60;57.40;;;;;;6773404;26;20526;-65
2024/04/15 09:51:24;;;;;;;4.27;2.30;;;16.60;57.60;;;;;;6774050;26;20459;-65
2024/04/15 09:54:31;;;;;;;3.10;2.70;;;16.40;56.70;;;;;;6773493;26;20935;-65
2024/04/15 09:57:39;;;;;;;5.10;2.40;;;16.20;57.50;;;;;;6773336;26;20452;-65
2024/04/15 10:00:47;;;;;;;2.43;2.23;;;16.00;56.60;;;;;;6772991;26;20456;-64
2024/04/15 10:03:52;;;;;;;8.43;2.47;;;16.20;57.10;;;;;;6772455;26;20496;-66
2024/04/15 10:06:58;;;;;;;4.70;2.10;;;16.70;52.90;;;;;;6773082;26;20559;-64
2024/04/15 10:10:01;;;;;;;2.07;1.80;;;16.70;51.50;;;;;;6773210;26;20456;-64
2024/04/15 10:13:05;;;;;;;2.60;1.80;;;16.80;51.10;;;;;;6773008;26;20508;-64
2024/04/15 10:16:18;;;;;;;5.13;2.40;;;17.10;52.40;;;;;;6772506;26;21089;-64
2024/04/15 10:19:39;;;;;;;9.10;2.20;;;17.20;53.00;;;;;;6772760;26;20923;-66
2024/04/15 10:22:42;;;;;;;3.30;2.40;;;17.10;51.20;;;;;;6772720;26;20515;-64
2024/04/15 10:25:43;;;;;;;2.50;2.30;;;17.20;50.60;;;;;;6770683;26;20463;-64
2024/04/15 10:28:45;;;;;;;4.13;2.30;;;17.30;51.60;;;;;;6772033;26;20463;-64
2024/04/15 10:31:56;;;;;;;2.43;1.97;;;17.40;51.10;;;;;;6772439;26;20506;-64
2024/04/15 10:34:58;;;;;;;1.90;1.80;;;17.50;49.50;;;;;;6772336;26;20927;-66
2024/04/15 10:38:05;;;;;;;4.40;2.33;;;17.40;48.20;;;;;;6772016;26;20953;-65
2024/04/15 10:41:07;;;;;;;2.47;1.70;;;17.60;48.10;;;;;;6771741;26;20542;-64
2024/04/15 10:44:10;;;;;;;2.60;2.00;;;17.60;47.30;;;;;;6770020;26;20503;-65
2024/04/15 10:47:13;;;;;;;3.63;2.20;;;17.30;47.90;;;;;;6771997;26;20460;-66
2024/04/15 10:50:15;;;;;;;3.57;2.10;;;17.10;48.70;;;;;;6771870;26;20468;-64
2024/04/15 10:53:17;;;;;;;5.60;2.23;;;16.80;49.80;;;;;;6770084;26;20575;-65
2024/04/15 10:56:19;;;;;;;4.43;2.50;;;16.90;49.70;;;;;;6771430;26;20467;-65
2024/04/15 10:59:21;;;;;;;5.33;2.73;;;17.10;51.70;;;;;;6773096;26;20467;-64
2024/04/15 11:02:23;;;;;;;4.50;2.47;;;17.10;51.90;;;;;;6774317;26;20470;-64
2024/04/15 11:05:24;;;;;;;4.87;3.00;;;17.20;50.90;;;;;;6773977;26;20451;-64
2024/04/15 11:08:28;;;;;;;3.00;2.50;;;17.00;52.10;;;;;;6776074;26;20510;-64
2024/04/15 11:11:32;;;;;;;6.13;2.50;;;17.10;52.20;;;;;;6776337;26;20463;-64
2024/04/15 11:14:34;;;;;;;3.47;2.40;;;17.30;51.20;;;;;;6776064;26;20866;-64
2024/04/15 11:17:48;;;;;;;5.70;2.97;;;17.60;51.20;;;;;;6776910;26;20439;-64
2024/04/15 11:20:58;;;;;;;5.43;2.33;;;17.80;49.60;;;;;;6777184;26;20493;-63
2024/04/15 11:24:01;;;;;;;5.50;2.53;;;17.80;48.30;;;;;;6776594;26;20459;-64
2024/04/15 11:27:08;;;;;;;2.60;2.03;;;17.60;49.40;;;;;;6775417;26;20463;-63
2024/04/15 11:30:13;;;;;;;3.00;2.03;;;17.50;49.10;;;;;;6775757;26;20522;-64
2024/04/15 11:33:19;;;;;;;4.80;1.90;;;17.80;47.50;;;;;;6775716;26;20555;-66
2024/04/15 11:36:21;;;;;;;2.80;2.10;;;17.50;46.60;;;;;;6775871;26;20523;-63
2024/04/15 11:39:23;;;;;;;9.13;2.60;;;16.90;47.20;;;;;;6774195;26;20471;-64
2024/04/15 11:42:25;;;;;;;2.57;2.20;;;16.80;47.90;;;;;;6775124;26;20763;-64
2024/04/15 11:45:27;;;;;;;3.97;2.00;;;16.80;48.60;;;;;;6776317;26;20479;-65
2024/04/15 11:48:29;;;;;;;9.13;2.30;;;16.70;48.40;;;;;;6779655;26;20817;-64
2024/04/15 11:51:31;;;;;;;4.60;1.97;;;16.90;49.40;;;;;;6778660;26;20460;-64
2024/04/15 11:54:33;;;;;;;4.53;2.40;;;17.10;48.30;;;;;;6777232;26;20471;-64
2024/04/15 11:57:35;;;;;;;2.97;2.10;;;17.50;48.30;;;;;;6777085;26;20471;-65
2024/04/15 12:00:37;;;;;;;3.20;2.10;;;17.80;47.50;;;;;;6775974;26;20467;-65
2024/04/15 12:03:39;;;;;;;4.10;2.10;;;18.00;46.40;;;;;;6781529;26;20459;-64
2024/04/15 12:06:44;;;;;;;4.10;2.20;;;18.00;45.30;;;;;;6777196;26;20487;-65
2024/04/15 12:09:46;;;;;;;2.90;2.30;;;18.00;44.80;;;;;;6780906;26;20531;-65
2024/04/15 12:12:48;;;;;;;8.30;2.20;;;17.70;43.80;;;;;;6785074;26;20499;-65
2024/04/15 12:15:49;;;;;;;11.10;3.20;;;17.90;44.60;;;;;;6787024;26;20515;-65
2024/04/15 12:18:52;;;;;;;4.63;2.07;;;18.40;44.50;;;;;;6790325;26;20447;-65
2024/04/15 12:21:54;;;;;;;7.37;1.80;;;18.30;43.00;;;;;;6789517;26;20561;-65
2024/04/15 12:24:56;;;;;;;3.37;1.90;;;18.30;41.90;;;;;;6781111;26;20455;-65
2024/04/15 12:28:09;;;;;;;2.33;2.13;;;18.30;42.00;;;;;;6776438;26;20484;-65
2024/04/15 12:31:12;;;;;;;5.00;2.13;;;18.50;42.00;;;;;;6776833;26;20455;-65
2024/04/15 12:34:14;;;;;;;3.53;2.03;;;18.70;41.30;;;;;;6776365;26;20947;-65
2024/04/15 12:37:16;;;;;;;5.37;1.80;;;18.90;41.00;;;;;;6775143;26;20763;-64
2024/04/15 12:40:18;;;;;;;5.17;2.20;;;18.70;40.80;;;;;;6774883;26;20507;-65
2024/04/15 12:43:20;;;;;;;2.70;2.37;;;18.60;41.70;;;;;;6773619;26;20455;-64
2024/04/15 12:46:22;;;;;;;3.33;1.93;;;18.50;42.60;;;;;;6772957;26;20716;-64
2024/04/15 12:49:24;;;;;;;2.23;1.87;;;18.60;42.60;;;;;;6774326;26;20491;-65
2024/04/15 12:52:26;;;;;;;6.57;2.67;;;18.70;42.30;;;;;;6775098;26;20919;-64
2024/04/15 12:55:28;;;;;;;4.97;2.30;;;18.70;43.00;;;;;;6774108;26;20818;-64
2024/04/15 12:58:30;;;;;;;5.47;2.40;;;18.90;42.60;;;;;;6772572;26;20535;-64
2024/04/15 13:01:32;;;;;;;4.17;2.20;;;18.60;41.80;;;;;;6774433;26;20455;-64
2024/04/15 13:04:34;;;;;;;6.23;2.13;;;18.50;42.40;;;;;;6774129;26;20503;-65
2024/04/15 13:07:36;;;;;;;3.80;2.20;;;18.50;42.80;;;;;;6774030;26;20547;-64
2024/04/15 13:10:38;;;;;;;5.93;2.43;;;18.60;42.20;;;;;;6773930;26;20460;-64
2024/04/15 13:13:40;;;;;;;4.43;2.30;;;18.60;43.40;;;;;;6773961;26;20467;-63
2024/04/15 13:16:42;;;;;;;4.70;2.37;;;18.50;43.10;;;;;;6773963;26;20990;-65
2024/04/15 13:19:43;;;;;;;8.50;2.50;;;18.50;42.50;;;;;;6774623;26;20467;-65
2024/04/15 13:22:45;;;;;;;4.07;2.27;;;18.40;42.40;;;;;;6773478;26;20451;-64
2024/04/15 13:25:47;;;;;;;3.80;2.13;;;18.60;42.20;;;;;;6773925;26;20471;-67
2024/04/15 13:28:50;;;;;;;3.27;2.20;;;18.60;41.70;;;;;;6772252;26;20562;-65
2024/04/15 13:31:51;;;;;;;5.33;2.47;;;18.80;42.20;;;;;;6777957;26;20499;-65
2024/04/15 13:35:12;;;;;;;5.30;2.67;;;18.90;42.20;;;;;;6774142;26;20468;-66
2024/04/15 13:38:15;;;;;;;2.53;2.20;;;18.80;42.10;;;;;;6774067;26;20272;-66
2024/04/15 13:41:17;;;;;;;6.17;2.30;;;18.90;41.60;;;;;;6773616;26;20535;-65
2024/04/15 13:44:19;;;;;;;5.97;2.27;;;18.80;38.40;;;;;;6771969;26;20467;-65
2024/04/15 13:47:21;;;;;;;2.67;2.27;;;18.50;38.80;;;;;;6772284;26;20456;-65
2024/04/15 13:50:22;;;;;;;4.73;2.50;;;18.50;38.40;;;;;;6775077;26;20462;-66
2024/04/15 13:53:24;;;;;;;5.23;2.13;;;18.30;36.70;;;;;;6775336;26;20520;-65
2024/04/15 13:56:26;;;;;;;3.10;2.20;;;18.30;37.40;;;;;;6778954;26;20479;-66
2024/04/15 13:59:28;;;;;;;8.70;2.37;;;18.10;37.50;;;;;;6775450;26;20499;-64
2024/04/15 14:02:30;;;;;;;7.10;2.60;;;18.10;38.70;;;;;;6772389;26;20462;-65
2024/04/15 14:05:32;;;;;;;12.13;2.50;;;18.10;37.60;;;;;;6781177;26;20475;-64
2024/04/15 14:08:34;;;;;;;7.93;2.50;;;18.40;36.40;;;;;;6771683;26;20460;-65
2024/04/15 14:11:36;;;;;;;3.40;2.37;;;18.50;36.80;;;;;;6773862;26;20451;-65
2024/04/15 14:14:39;;;;;;;3.87;2.50;;;18.30;37.40;;;;;;6773602;26;20491;-65
2024/04/15 14:17:41;;;;;;;7.53;2.20;;;18.20;37.10;;;;;;6773570;26;20443;-66
2024/04/15 14:20:43;;;;;;;4.97;2.30;;;18.10;36.20;;;;;;6774809;26;20503;-65
2024/04/15 14:23:45;;;;;;;3.67;2.30;;;18.10;37.30;;;;;;6772875;26;20455;-64
2024/04/15 14:26:47;;;;;;;4.70;3.40;;;17.70;36.10;;;;;;6774475;26;20977;-65
2024/04/15 14:29:49;;;;;;;3.33;2.57;;;17.60;36.90;;;;;;6785988;26;20550;-65
2024/04/15 14:32:50;;;;;;;4.30;2.60;;;17.50;37.60;;;;;;6786489;26;20463;-65
2024/04/15 14:35:52;;;;;;;2.63;2.43;;;17.20;38.10;;;;;;6790024;26;20997;-65
2024/04/15 14:38:54;;;;;;;3.40;2.23;;;17.10;38.70;;;;;;6787082;26;20495;-64
2024/04/15 14:41:56;;;;;;;3.13;2.53;;;17.00;39.60;;;;;;6787632;26;20501;-64
2024/04/15 14:44:58;;;;;;;3.43;2.13;;;17.00;39.70;;;;;;6781528;26;20448;-65
2024/04/15 14:48:01;;;;;;;3.53;2.30;;;17.00;40.30;;;;;;6777863;26;20533;-65
2024/04/15 14:51:04;;;;;;;3.30;2.40;;;17.10;39.80;;;;;;6776338;26;20447;-65
2024/04/15 14:54:05;;;;;;;3.73;2.63;;;17.10;39.50;;;;;;6777683;26;20456;-65
2024/04/15 14:57:08;;;;;;;3.20;2.40;;;17.20;40.40;;;;;;6776891;26;20479;-65
2024/04/15 15:00:11;;;;;;;3.43;3.13;;;17.20;40.50;;;;;;6777670;26;20507;-65
2024/04/15 15:03:13;;;;;;;4.40;2.40;;;17.10;40.60;;;;;;6777980;26;20443;-64
2024/04/15 15:06:15;;;;;;;3.73;2.40;;;16.90;39.30;;;;;;6783997;26;20494;-64
2024/04/15 15:09:17;;;;;;;7.03;2.50;;;16.90;40.00;;;;;;6782988;26;20562;-64
2024/04/15 15:12:19;;;;;;;5.20;2.33;;;16.80;38.80;;;;;;6777457;26;20566;-64
2024/04/15 15:15:20;;;;;;;2.30;2.20;;;16.80;40.10;;;;;;6776606;26;20513;-65
2024/04/15 15:18:22;;;;;;;2.17;1.93;;;16.70;39.40;;;;;;6776301;26;20451;-64
2024/04/15 15:21:24;;;;;;;2.83;2.33;;;16.70;39.90;;;;;;6776485;26;20447;-65
2024/04/15 15:24:30;;;;;;;3.37;2.60;;;16.80;40.90;;;;;;6783408;26;21018;-64
2024/04/15 15:27:32;;;;;;;6.23;2.50;;;17.00;40.00;;;;;;6776981;26;20463;-65
2024/04/15 15:30:35;;;;;;;7.67;2.67;;;17.10;39.80;;;;;;6776716;26;20542;-65
2024/04/15 15:33:37;;;;;;;4.70;2.73;;;17.20;40.10;;;;;;6776510;26;20460;-63
2024/04/15 15:36:39;;;;;;;3.60;2.60;;;17.10;40.10;;;;;;6776455;26;20499;-64
2024/04/15 15:39:41;;;;;;;3.27;2.63;;;17.10;40.90;;;;;;6776927;26;20491;-65
2024/04/15 15:42:43;;;;;;;6.73;2.60;;;17.40;40.90;;;;;;6776422;26;20443;-66
2024/04/15 15:45:45;;;;;;;3.63;2.37;;;17.80;40.30;;;;;;6781330;26;20528;-65